createdAt,value
2019-03-25T00:01:06.092Z,57.63
2019-03-25T00:03:34.345Z,52.77
2019-03-25T00:06:11.746Z,52.33
2019-03-25T00:08:40.115Z,54.67
2019-03-25T00:11:08.539Z,59.87
2019-03-25T00:13:36.922Z,54.50
2019-03-25T00:16:05.447Z,58.53
2019-03-25T00:18:33.724Z,56.13
2019-03-25T00:21:01.854Z,54.33
2019-03-25T00:23:30.123Z,50.60
2019-03-25T00:25:58.455Z,52.00
2019-03-25T00:28:26.749Z,58.00
2019-03-25T00:30:55.022Z,56.43
2019-03-25T00:33:23.280Z,53.23
2019-03-25T00:35:51.505Z,47.57
2019-03-25T00:38:19.902Z,49.30
2019-03-25T00:40:48.199Z,46.00
2019-03-25T00:43:16.547Z,43.57
2019-03-25T00:45:44.772Z,42.77
2019-03-25T00:48:13.065Z,46.67
2019-03-25T00:50:41.286Z,42.20
2019-03-25T00:53:09.540Z,41.80
2019-03-25T00:55:37.852Z,42.70
2019-03-25T00:58:06.051Z,50.60
2019-03-25T01:00:34.495Z,39.97
2019-03-25T01:03:02.937Z,49.43
2019-03-25T01:05:31.542Z,47.73
2019-03-25T01:07:59.810Z,50.83
2019-03-25T01:10:29.358Z,53.43
2019-03-25T01:12:57.691Z,55.27
2019-03-25T01:15:25.900Z,60.03
2019-03-25T01:17:54.289Z,59.13
2019-03-25T01:20:22.565Z,57.03
2019-03-25T01:22:50.885Z,58.00
2019-03-25T01:25:20.372Z,66.47
2019-03-25T01:27:48.691Z,61.43
2019-03-25T01:30:16.948Z,65.00
2019-03-25T01:32:45.242Z,67.83
2019-03-25T01:35:13.580Z,62.07
2019-03-25T01:37:42.817Z,67.13
2019-03-25T01:40:11.282Z,70.27
2019-03-25T01:42:39.437Z,73.43
2019-03-25T01:45:08.275Z,69.20
2019-03-25T01:47:36.830Z,73.90
2019-03-25T01:50:05.583Z,73.37
2019-03-25T01:52:33.845Z,70.83
2019-03-25T01:55:12.729Z,72.87
2019-03-25T01:57:33.412Z,75.97
2019-03-25T02:00:01.645Z,75.63
2019-03-25T02:02:29.897Z,72.27
2019-03-25T02:04:58.213Z,81.23
2019-03-25T02:07:26.475Z,72.23
2019-03-25T02:09:54.786Z,73.67
2019-03-25T02:12:23.088Z,73.37
2019-03-25T02:14:51.357Z,77.33
2019-03-25T02:17:19.605Z,73.40
2019-03-25T02:19:47.883Z,70.00
2019-03-25T02:22:16.123Z,57.93
2019-03-25T02:24:44.440Z,60.30
2019-03-25T02:27:12.654Z,54.87
2019-03-25T02:29:40.977Z,55.40
2019-03-25T02:32:09.376Z,56.07
2019-03-25T02:34:37.738Z,50.40
2019-03-25T02:37:06.041Z,54.87
2019-03-25T02:39:34.397Z,53.17
2019-03-25T02:42:02.654Z,51.87
2019-03-25T02:44:30.924Z,48.13
2019-03-25T02:46:59.156Z,55.90
2019-03-25T02:49:27.433Z,50.80
2019-03-25T02:51:55.736Z,48.43
2019-03-25T02:54:24.038Z,47.17
2019-03-25T02:56:52.232Z,51.77
2019-03-25T02:59:21.901Z,51.57
2019-03-25T03:01:50.131Z,48.50
2019-03-25T03:04:18.441Z,46.87
2019-03-25T03:06:46.667Z,47.40
2019-03-25T03:09:14.908Z,48.87
2019-03-25T03:11:43.338Z,49.27
2019-03-25T03:14:15.122Z,46.33
2019-03-25T03:16:42.979Z,44.17
2019-03-25T03:19:11.209Z,46.37
2019-03-25T03:21:39.534Z,45.27
2019-03-25T03:24:07.892Z,46.63
2019-03-25T03:26:36.279Z,49.63
2019-03-25T03:29:04.526Z,45.17
2019-03-25T03:31:33.022Z,44.90
2019-03-25T03:34:01.553Z,43.57
2019-03-25T03:36:29.871Z,40.23
2019-03-25T03:38:58.184Z,42.23
2019-03-25T03:41:26.470Z,37.53
2019-03-25T03:43:54.758Z,38.47
2019-03-25T03:46:23.068Z,34.27
2019-03-25T03:48:51.712Z,38.47
2019-03-25T03:51:20.104Z,40.23
2019-03-25T03:53:48.491Z,35.73
2019-03-25T03:56:17.206Z,29.93
2019-03-25T03:58:45.827Z,30.37
2019-03-25T04:01:14.038Z,33.07
2019-03-25T04:03:42.243Z,37.30
2019-03-25T04:06:10.542Z,34.30
2019-03-25T04:08:38.817Z,33.73
2019-03-25T04:11:07.185Z,34.20
2019-03-25T04:13:35.415Z,32.60
2019-03-25T04:16:08.047Z,29.17
2019-03-25T04:18:34.960Z,26.73
2019-03-25T04:21:03.250Z,20.63
2019-03-25T04:23:31.656Z,23.73
2019-03-25T04:25:59.870Z,29.40
2019-03-25T04:28:28.190Z,28.00
2019-03-25T04:30:56.487Z,29.70
2019-03-25T04:33:24.902Z,27.50
2019-03-25T04:35:53.232Z,24.90
2019-03-25T04:38:21.499Z,28.67
2019-03-25T04:40:49.813Z,29.57
2019-03-25T04:43:18.089Z,24.13
2019-03-25T04:45:46.451Z,26.07
2019-03-25T04:48:14.742Z,25.00
2019-03-25T04:50:43.069Z,32.43
2019-03-25T04:53:11.387Z,31.23
2019-03-25T04:55:39.692Z,25.47
2019-03-25T04:58:08.072Z,24.80
2019-03-25T05:00:37.118Z,25.13
2019-03-25T05:03:05.866Z,28.50
2019-03-25T05:05:36.100Z,28.97
2019-03-25T05:08:06.555Z,29.47
2019-03-25T05:10:34.643Z,28.97
2019-03-25T05:13:03.258Z,26.53
2019-03-25T05:15:31.462Z,25.37
2019-03-25T05:17:59.792Z,33.50
2019-03-25T05:20:28.084Z,27.83
2019-03-25T05:23:02.462Z,24.13
2019-03-25T05:25:26.494Z,25.43
2019-03-25T05:27:58.320Z,31.37
2019-03-25T05:30:26.625Z,26.83
2019-03-25T05:32:54.975Z,30.83
2019-03-25T05:35:23.220Z,28.67
2019-03-25T05:37:51.426Z,27.93
2019-03-25T05:40:19.561Z,34.47
2019-03-25T05:42:47.926Z,28.97
2019-03-25T05:45:19.510Z,26.40
2019-03-25T05:47:47.742Z,25.07
2019-03-25T05:50:15.866Z,25.17
2019-03-25T05:52:44.103Z,25.27
2019-03-25T05:55:13.393Z,34.63
2019-03-25T05:57:41.548Z,27.63
2019-03-25T06:00:09.835Z,35.07
2019-03-25T06:02:37.916Z,25.53
2019-03-25T06:05:06.522Z,28.90
2019-03-25T06:07:34.854Z,25.37
2019-03-25T06:10:03.339Z,27.20
2019-03-25T06:12:33.787Z,30.13
2019-03-25T06:15:02.255Z,24.73
2019-03-25T06:17:30.480Z,30.97
2019-03-25T06:19:58.824Z,27.13
2019-03-25T06:22:27.047Z,20.43
2019-03-25T06:24:55.337Z,20.80
2019-03-25T06:27:23.723Z,27.33
2019-03-25T06:29:52.002Z,23.80
2019-03-25T06:32:21.627Z,23.87
2019-03-25T06:34:49.851Z,24.20
2019-03-25T06:37:18.161Z,22.77
2019-03-25T06:39:46.456Z,27.77
2019-03-25T06:42:23.884Z,16.30
2019-03-25T06:44:52.259Z,23.60
2019-03-25T06:47:20.606Z,19.17
2019-03-25T06:49:48.884Z,20.63
2019-03-25T06:52:17.254Z,23.40
2019-03-25T06:54:45.822Z,21.33
2019-03-25T06:57:25.116Z,20.07
2019-03-25T06:59:45.632Z,23.37
2019-03-25T07:02:13.942Z,20.77
2019-03-25T07:04:42.323Z,15.40
2019-03-25T07:07:10.474Z,18.17
2019-03-25T07:09:38.806Z,19.87
2019-03-25T07:12:06.985Z,20.30
2019-03-25T07:14:35.437Z,18.93
2019-03-25T07:17:03.700Z,19.53
2019-03-25T07:19:31.978Z,21.83
2019-03-25T07:22:00.242Z,19.83
2019-03-25T07:24:28.497Z,17.70
2019-03-25T07:26:57.292Z,17.80
2019-03-25T07:29:25.867Z,16.33
2019-03-25T07:31:54.609Z,18.27
2019-03-25T07:34:22.911Z,17.83
2019-03-25T07:36:52.942Z,17.70
2019-03-25T07:39:21.433Z,21.80
2019-03-25T07:41:49.935Z,18.33
2019-03-25T07:44:18.699Z,17.07
2019-03-25T07:46:47.238Z,17.17
2019-03-25T07:49:15.741Z,21.53
2019-03-25T07:51:44.220Z,16.37
2019-03-25T07:54:13.110Z,17.03
2019-03-25T07:56:43.629Z,22.33
2019-03-25T07:59:12.015Z,17.93
2019-03-25T08:01:40.556Z,16.70
2019-03-25T08:04:09.047Z,15.37
2019-03-25T08:06:38.170Z,16.70
2019-03-25T08:09:08.024Z,14.30
2019-03-25T08:11:36.715Z,16.63
2019-03-25T08:14:05.861Z,14.73
2019-03-25T08:16:34.164Z,19.37
2019-03-25T08:19:03.020Z,16.60
2019-03-25T08:21:31.618Z,13.77
2019-03-25T08:24:00.512Z,14.00
2019-03-25T08:26:29.142Z,14.07
2019-03-25T08:28:58.757Z,15.37
2019-03-25T08:31:27.295Z,13.87
2019-03-25T08:33:55.894Z,14.70
2019-03-25T08:36:24.144Z,13.37
2019-03-25T08:38:52.690Z,18.23
2019-03-25T08:41:21.146Z,14.70
2019-03-25T08:43:51.060Z,17.13
2019-03-25T08:46:19.346Z,13.80
2019-03-25T08:48:47.674Z,14.47
2019-03-25T08:51:15.956Z,17.53
2019-03-25T08:53:44.371Z,15.77
2019-03-25T08:56:12.772Z,16.63
2019-03-25T08:58:41.660Z,19.40
2019-03-25T09:01:10.114Z,18.67
2019-03-25T09:03:38.486Z,19.80
2019-03-25T09:06:07.003Z,16.80
2019-03-25T09:08:35.391Z,18.17
2019-03-25T09:11:03.911Z,18.10
2019-03-25T09:13:32.166Z,20.97
2019-03-25T09:16:00.558Z,18.73
2019-03-25T09:18:32.965Z,15.17
2019-03-25T09:21:01.191Z,23.33
2019-03-25T09:23:30.730Z,17.10
2019-03-25T09:25:59.177Z,18.37
2019-03-25T09:28:27.586Z,13.97
2019-03-25T09:31:14.227Z,11.03
2019-03-25T09:33:42.673Z,17.03
2019-03-25T09:36:11.558Z,14.40
2019-03-25T09:38:42.556Z,11.83
2019-03-25T09:41:10.838Z,15.57
2019-03-25T09:43:39.524Z,15.30
2019-03-25T09:46:07.985Z,15.67
2019-03-25T09:48:36.955Z,14.60
2019-03-25T09:51:06.014Z,14.20
2019-03-25T09:53:34.639Z,14.20
2019-03-25T09:56:03.589Z,12.87
2019-03-25T09:58:36.409Z,13.33
2019-03-25T10:01:04.953Z,15.30
2019-03-25T10:03:35.032Z,13.53
2019-03-25T10:06:05.528Z,12.20
2019-03-25T10:08:34.400Z,13.07
2019-03-25T10:11:05.560Z,11.87
2019-03-25T10:13:36.312Z,12.23
2019-03-25T10:16:28.309Z,12.63
2019-03-25T10:21:37.121Z,9.40
2019-03-25T10:24:06.786Z,8.67
2019-03-25T10:26:36.173Z,9.17
2019-03-25T10:29:07.598Z,8.70
2019-03-25T10:34:09.204Z,10.67
2019-03-25T10:36:37.640Z,10.90
2019-03-25T10:39:18.383Z,8.57
2019-03-25T10:41:59.826Z,8.67
2019-03-25T10:44:53.278Z,6.83
2019-03-25T10:47:22.014Z,8.33
2019-03-25T11:05:13.167Z,7.33
2019-03-25T11:10:12.611Z,8.03
2019-03-25T11:12:43.785Z,8.33
2019-03-25T11:15:13.088Z,11.30
2019-03-25T11:17:41.730Z,9.97
2019-03-25T11:22:45.731Z,11.57
2019-03-25T11:25:20.400Z,7.77
2019-03-25T11:27:54.528Z,9.57
2019-03-25T11:31:05.544Z,11.60
2019-03-25T11:36:24.370Z,9.13
2019-03-25T11:38:53.402Z,10.07
2019-03-25T11:41:22.385Z,6.83
2019-03-25T11:43:54.005Z,9.03
2019-03-25T11:46:22.661Z,10.57
2019-03-25T11:48:51.175Z,8.90
2019-03-25T11:51:21.996Z,9.83
2019-03-25T11:53:51.949Z,12.57
2019-03-25T11:56:20.966Z,7.67
2019-03-25T11:58:49.546Z,9.57
2019-03-25T12:01:17.936Z,9.30
2019-03-25T12:03:47.025Z,9.53
2019-03-25T12:06:21.715Z,8.33
2019-03-25T12:08:50.713Z,10.13
2019-03-25T12:11:19.973Z,9.17
2019-03-25T12:13:49.829Z,13.53
2019-03-25T12:16:18.456Z,9.93
2019-03-25T12:18:51.208Z,9.27
2019-03-25T12:21:20.149Z,10.33
2019-03-25T12:23:48.611Z,9.23
2019-03-25T12:26:19.645Z,9.30
2019-03-25T12:28:48.783Z,10.30
2019-03-25T12:31:17.941Z,12.83
2019-03-25T12:33:46.305Z,10.00
2019-03-25T12:36:15.542Z,11.43
2019-03-25T12:38:44.576Z,10.27
2019-03-25T12:41:13.814Z,8.17
2019-03-25T12:43:43.928Z,12.20
2019-03-25T12:46:12.324Z,10.83
2019-03-25T12:48:40.795Z,10.60
2019-03-25T12:51:09.089Z,13.70
2019-03-25T12:53:38.084Z,9.47
2019-03-25T12:56:06.645Z,14.13
2019-03-25T12:58:35.090Z,9.67
2019-03-25T13:01:03.983Z,11.67
2019-03-25T13:03:32.290Z,11.77
2019-03-25T13:06:00.598Z,12.43
2019-03-25T13:08:33.277Z,11.53
2019-03-25T13:11:00.500Z,13.77
2019-03-25T13:13:28.866Z,12.30
2019-03-25T13:15:57.286Z,11.00
2019-03-25T13:18:25.757Z,11.33
2019-03-25T13:20:54.277Z,12.17
2019-03-25T13:23:22.974Z,12.47
2019-03-25T13:25:51.322Z,11.83
2019-03-25T13:28:20.093Z,12.03
2019-03-25T13:30:48.795Z,11.83
2019-03-25T13:33:17.371Z,12.60
2019-03-25T13:35:46.941Z,10.10
2019-03-25T13:38:15.568Z,13.93
2019-03-25T13:40:44.212Z,10.77
2019-03-25T13:43:12.721Z,10.10
2019-03-25T13:45:41.007Z,13.77
2019-03-25T13:48:09.452Z,11.03
2019-03-25T13:50:37.723Z,10.43
2019-03-25T13:53:06.005Z,10.47
2019-03-25T13:55:34.394Z,11.67
2019-03-25T13:58:02.673Z,9.63
2019-03-25T14:00:40.610Z,11.23
2019-03-25T14:03:08.850Z,10.93
2019-03-25T14:05:37.740Z,9.63
2019-03-25T14:08:06.321Z,10.70
2019-03-25T14:10:34.893Z,9.73
2019-03-25T14:13:03.274Z,8.57
2019-03-25T14:15:31.702Z,12.40
2019-03-25T14:18:00.312Z,11.50
2019-03-25T14:20:28.891Z,11.07
2019-03-25T14:22:57.305Z,9.07
2019-03-25T14:25:25.706Z,10.03
2019-03-25T14:27:54.607Z,9.47
2019-03-25T14:30:22.965Z,9.67
2019-03-25T14:32:51.543Z,10.13
2019-03-25T14:35:19.919Z,11.73
2019-03-25T14:37:48.224Z,13.43
2019-03-25T14:40:16.767Z,11.27
2019-03-25T14:42:45.326Z,17.80
2019-03-25T14:45:13.831Z,15.03
2019-03-25T14:47:42.074Z,16.00
2019-03-25T14:50:10.914Z,17.70
2019-03-25T14:52:39.382Z,13.53
2019-03-25T14:55:08.516Z,19.23
2019-03-25T14:57:36.725Z,12.73
2019-03-25T15:00:06.285Z,15.90
2019-03-25T15:02:35.981Z,16.33
2019-03-25T15:05:04.407Z,14.37
2019-03-25T15:07:32.656Z,20.60
2019-03-25T15:10:01.562Z,20.37
2019-03-25T15:12:29.805Z,16.60
2019-03-25T15:14:58.321Z,19.13
2019-03-25T15:17:27.085Z,21.73
2019-03-25T15:19:55.824Z,25.10
2019-03-25T15:22:24.249Z,25.53
2019-03-25T15:24:52.801Z,24.23
2019-03-25T15:27:21.526Z,20.97
2019-03-25T15:29:50.018Z,22.30
2019-03-25T15:32:18.821Z,20.17
2019-03-25T15:34:49.301Z,19.90
2019-03-25T15:37:19.798Z,20.57
2019-03-25T15:39:48.414Z,18.70
2019-03-25T15:42:20.303Z,18.73
2019-03-25T15:44:48.506Z,19.30
2019-03-25T15:47:21.531Z,17.00
2019-03-25T15:49:50.404Z,17.60
2019-03-25T15:52:23.866Z,17.40
2019-03-25T15:54:58.723Z,21.07
2019-03-25T15:57:28.582Z,20.53
2019-03-25T15:59:57.878Z,19.17
2019-03-25T16:02:26.749Z,20.37
2019-03-25T16:04:55.253Z,19.70
2019-03-25T16:07:25.826Z,20.67
2019-03-25T16:09:54.103Z,17.40
2019-03-25T16:12:22.570Z,17.17
2019-03-25T16:14:51.506Z,19.63
2019-03-25T16:17:19.916Z,19.23
2019-03-25T16:19:48.184Z,15.17
2019-03-25T16:22:16.737Z,15.17
2019-03-25T16:24:45.387Z,17.37
2019-03-25T16:27:13.754Z,17.23
2019-03-25T16:29:42.054Z,16.30
2019-03-25T16:32:10.366Z,18.13
2019-03-25T16:34:38.940Z,20.13
2019-03-25T16:37:07.571Z,16.27
2019-03-25T16:39:36.216Z,18.70
2019-03-25T16:42:04.906Z,15.00
2019-03-25T16:44:33.382Z,20.13
2019-03-25T16:47:03.949Z,14.50
2019-03-25T16:49:32.494Z,16.70
2019-03-25T16:52:01.183Z,14.90
2019-03-25T16:54:29.851Z,14.20
2019-03-25T16:56:58.284Z,14.47
2019-03-25T16:59:26.622Z,18.73
2019-03-25T17:01:55.003Z,18.17
2019-03-25T17:04:23.472Z,14.50
2019-03-25T17:06:53.282Z,18.03
2019-03-25T17:09:21.687Z,12.57
2019-03-25T17:11:50.444Z,15.70
2019-03-25T17:14:19.950Z,15.90
2019-03-25T17:16:48.950Z,15.83
2019-03-25T17:19:17.668Z,15.47
2019-03-25T17:21:57.613Z,16.90
2019-03-25T17:24:19.240Z,15.63
2019-03-25T17:26:47.466Z,16.83
2019-03-25T17:29:19.020Z,15.50
2019-03-25T17:31:47.326Z,13.63
2019-03-25T17:34:15.833Z,14.30
2019-03-25T17:36:44.172Z,17.53
2019-03-25T17:39:12.988Z,14.97
2019-03-25T17:41:41.485Z,14.87
2019-03-25T17:44:11.865Z,17.47
2019-03-25T17:46:40.267Z,14.70
2019-03-25T17:49:14.230Z,16.57
2019-03-25T17:51:43.260Z,14.60
2019-03-25T17:54:11.683Z,16.63
2019-03-25T17:56:40.253Z,15.17
2019-03-25T17:59:09.954Z,9.67
2019-03-25T18:01:38.587Z,15.13
2019-03-25T18:04:06.879Z,17.30
2019-03-25T18:06:35.331Z,13.73
2019-03-25T18:09:07.388Z,14.17
2019-03-25T18:11:35.759Z,22.20
2019-03-25T18:14:04.612Z,30.87
2019-03-25T18:16:32.998Z,29.93
2019-03-25T18:19:01.232Z,21.40
2019-03-25T18:21:29.757Z,9.60
2019-03-25T18:23:58.098Z,9.03
2019-03-25T18:26:26.461Z,10.37
2019-03-25T18:28:55.046Z,6.70
2019-03-25T18:31:24.350Z,7.43
2019-03-25T18:33:52.800Z,11.03
2019-03-25T18:36:21.262Z,11.73
2019-03-25T18:38:52.234Z,10.73
2019-03-25T18:41:25.209Z,7.50
2019-03-25T18:43:57.421Z,8.30
2019-03-25T18:46:27.444Z,8.40
2019-03-25T18:48:59.042Z,9.13
2019-03-25T18:51:27.694Z,9.63
2019-03-25T18:53:55.954Z,12.00
2019-03-25T18:56:24.623Z,12.47
2019-03-25T18:58:53.231Z,14.30
2019-03-25T19:01:22.067Z,12.40
2019-03-25T19:03:50.793Z,12.23
2019-03-25T19:06:19.751Z,14.63
2019-03-25T19:08:48.482Z,14.70
2019-03-25T19:11:17.007Z,14.83
2019-03-25T19:13:45.412Z,17.00
2019-03-25T19:16:16.992Z,12.57
2019-03-25T19:18:45.502Z,18.30
2019-03-25T19:21:14.160Z,18.07
2019-03-25T19:23:42.542Z,18.90
2019-03-25T19:26:11.113Z,19.27
2019-03-25T19:28:42.246Z,22.33
2019-03-25T19:31:10.853Z,20.00
2019-03-25T19:33:39.493Z,20.60
2019-03-25T19:36:08.069Z,19.90
2019-03-25T19:38:36.492Z,21.27
2019-03-25T19:41:05.132Z,26.23
2019-03-25T19:43:33.554Z,24.30
2019-03-25T19:46:02.662Z,22.47
2019-03-25T19:48:32.822Z,27.83
2019-03-25T19:51:01.780Z,26.97
2019-03-25T19:53:30.801Z,26.53
2019-03-25T19:56:02.135Z,28.00
2019-03-25T19:58:31.059Z,29.80
2019-03-25T20:00:59.372Z,31.63
2019-03-25T20:03:27.993Z,32.40
2019-03-25T20:05:56.586Z,28.53
2019-03-25T20:08:25.015Z,29.27
2019-03-25T20:10:53.641Z,34.87
2019-03-25T20:13:22.098Z,31.33
2019-03-25T20:15:50.583Z,34.70
2019-03-25T20:18:19.054Z,33.07
2019-03-25T20:20:47.451Z,33.93
2019-03-25T20:23:15.948Z,37.37
2019-03-25T20:25:44.669Z,34.83
2019-03-25T20:28:13.121Z,34.40
2019-03-25T20:30:41.541Z,34.77
2019-03-25T20:33:10.029Z,31.40
2019-03-25T20:35:40.916Z,34.77
2019-03-25T20:38:09.502Z,32.20
2019-03-25T20:40:37.941Z,30.23
2019-03-25T20:43:06.628Z,29.00
2019-03-25T20:45:34.964Z,24.50
2019-03-25T20:48:03.251Z,29.80
2019-03-25T20:50:31.683Z,23.67
2019-03-25T20:53:00.682Z,24.53
2019-03-25T20:55:29.396Z,22.87
2019-03-25T20:57:57.640Z,20.43
2019-03-25T21:00:46.496Z,20.23
2019-03-25T21:03:14.936Z,15.63
2019-03-25T21:05:43.362Z,20.40
2019-03-25T21:08:11.794Z,21.77
2019-03-25T21:10:40.034Z,18.13
2019-03-25T21:13:08.471Z,18.33
2019-03-25T21:15:36.834Z,17.67
2019-03-25T21:18:11.634Z,17.40
2019-03-25T21:20:38.928Z,18.50
2019-03-25T21:23:07.349Z,20.93
2019-03-25T21:25:36.126Z,16.83
2019-03-25T21:28:04.322Z,18.17
2019-03-25T21:30:32.682Z,20.63
2019-03-25T21:33:01.079Z,19.13
2019-03-25T21:35:29.498Z,19.73
2019-03-25T21:37:57.883Z,20.07
2019-03-25T21:40:26.249Z,23.90
2019-03-25T21:43:02.067Z,22.70
2019-03-25T21:45:31.776Z,21.40
2019-03-25T21:48:00.178Z,28.53
2019-03-25T21:50:28.527Z,28.10
2019-03-25T21:52:57.023Z,27.03
2019-03-25T21:55:25.599Z,29.60
2019-03-25T21:57:53.890Z,28.20
2019-03-25T22:00:22.333Z,28.70
2019-03-25T22:02:50.723Z,29.67
2019-03-25T22:05:18.957Z,32.57
2019-03-25T22:07:47.922Z,32.37
2019-03-25T22:10:16.450Z,29.70
2019-03-25T22:12:44.761Z,33.97
2019-03-25T22:15:16.345Z,33.77
2019-03-25T22:17:44.590Z,36.90
2019-03-25T22:20:15.288Z,38.13
2019-03-25T22:22:43.708Z,41.27
2019-03-25T22:25:12.556Z,34.97
2019-03-25T22:27:41.029Z,35.53
2019-03-25T22:30:12.353Z,39.83
2019-03-25T22:32:40.673Z,37.37
2019-03-25T22:35:09.224Z,38.33
2019-03-25T22:37:37.605Z,42.80
2019-03-25T22:40:06.470Z,36.53
2019-03-25T22:42:37.128Z,33.67
2019-03-25T22:45:06.123Z,36.17
2019-03-25T22:47:34.937Z,31.83
2019-03-25T22:50:03.812Z,29.13
2019-03-25T22:52:32.036Z,28.67
2019-03-25T22:55:00.460Z,31.97
2019-03-25T22:57:28.812Z,29.17
2019-03-25T22:59:57.190Z,28.20
2019-03-25T23:02:25.657Z,36.47
2019-03-25T23:04:54.069Z,32.40
2019-03-25T23:07:22.541Z,29.97
2019-03-25T23:09:51.146Z,33.00
2019-03-25T23:12:19.502Z,36.40
2019-03-25T23:14:47.899Z,33.80
2019-03-25T23:17:16.376Z,37.33
2019-03-25T23:19:45.074Z,31.90
2019-03-25T23:22:13.411Z,31.03
2019-03-25T23:24:41.934Z,29.67
2019-03-25T23:27:10.312Z,33.17
2019-03-25T23:29:38.889Z,33.10
2019-03-25T23:32:13.114Z,33.83
2019-03-25T23:34:41.516Z,35.17
2019-03-25T23:37:10.056Z,32.73
2019-03-25T23:39:38.302Z,33.10
2019-03-25T23:42:06.694Z,27.93
2019-03-25T23:44:35.714Z,24.10
2019-03-25T23:47:04.064Z,29.77
2019-03-25T23:49:32.488Z,27.13
2019-03-25T23:52:00.822Z,28.50
2019-03-25T23:54:29.040Z,30.23
2019-03-25T23:56:57.560Z,24.23
2019-03-25T23:59:26.013Z,30.47
